sensor_id;sensor_type;location;lat;lon;timestamp;pressure;altitude;pressure_sealevel;temperature;humidity
65054;BME280;51639;47.828;35.038;2023-04-16T00:05:20;100973.06;;;8.95;100.00
65054;BME280;51639;47.828;35.038;2023-04-16T00:20:22;100982.69;;;8.78;100.00
65054;BME280;51639;47.828;35.038;2023-04-16T00:35:24;100966.09;;;8.73;100.00
65054;BME280;51639;47.828;35.038;2023-04-16T00:50:26;100962.94;;;8.49;100.00
65054;BME280;51639;47.828;35.038;2023-04-16T01:05:29;100955.47;;;8.18;100.00
65054;BME280;51639;47.828;35.038;2023-04-16T01:20:34;100962.78;;;8.14;100.00
65054;BME280;51639;47.828;35.038;2023-04-16T01:35:36;100963.88;;;7.95;100.00
65054;BME280;51639;47.828;35.038;2023-04-16T01:50:38;100958.78;;;7.86;100.00
65054;BME280;51639;47.828;35.038;2023-04-16T02:05:40;100934.75;;;7.67;100.00
65054;BME280;51639;47.828;35.038;2023-04-16T02:20:44;100950.13;;;7.56;100.00
65054;BME280;51639;47.828;35.038;2023-04-16T02:35:45;100954.00;;;7.55;100.00
65054;BME280;51639;47.828;35.038;2023-04-16T02:50:49;100965.50;;;7.45;100.00
65054;BME280;51639;47.828;35.038;2023-04-16T03:05:51;100984.81;;;7.47;100.00
65054;BME280;51639;47.828;35.038;2023-04-16T03:20:53;101004.44;;;7.40;100.00
65054;BME280;51639;47.828;35.038;2023-04-16T03:35:56;101004.13;;;7.49;100.00
65054;BME280;51639;47.828;35.038;2023-04-16T03:50:58;101012.72;;;7.65;100.00
65054;BME280;51639;47.828;35.038;2023-04-16T04:06:00;101005.16;;;7.88;100.00
65054;BME280;51639;47.828;35.038;2023-04-16T04:21:06;101009.97;;;8.27;100.00
65054;BME280;51639;47.828;35.038;2023-04-16T04:36:08;101040.88;;;8.23;100.00
65054;BME280;51639;47.828;35.038;2023-04-16T04:51:10;101024.34;;;8.38;100.00
65054;BME280;51639;47.828;35.038;2023-04-16T05:06:12;101025.19;;;8.60;100.00
65054;BME280;51639;47.828;35.038;2023-04-16T05:21:13;101035.31;;;8.81;100.00
65054;BME280;51639;47.828;35.038;2023-04-16T05:36:15;101025.28;;;8.92;100.00
65054;BME280;51639;47.828;35.038;2023-04-16T05:51:17;101003.91;;;9.97;100.00
65054;BME280;51639;47.828;35.038;2023-04-16T06:06:20;101027.91;;;10.13;100.00
65054;BME280;51639;47.828;35.038;2023-04-16T06:21:22;101017.81;;;10.28;100.00
65054;BME280;51639;47.828;35.038;2023-04-16T06:36:24;101042.78;;;10.78;100.00
65054;BME280;51639;47.828;35.038;2023-04-16T06:51:28;101057.78;;;12.00;100.00
65054;BME280;51639;47.828;35.038;2023-04-16T07:06:30;101060.09;;;12.02;100.00
65054;BME280;51639;47.828;35.038;2023-04-16T07:21:32;101051.59;;;12.30;100.00
65054;BME280;51639;47.828;35.038;2023-04-16T07:36:34;101040.38;;;12.28;100.00
65054;BME280;51639;47.828;35.038;2023-04-16T07:51:36;101027.47;;;12.62;100.00
65054;BME280;51639;47.828;35.038;2023-04-16T08:06:38;101047.78;;;13.12;100.00
65054;BME280;51639;47.828;35.038;2023-04-16T08:21:40;101020.84;;;14.27;100.00
65054;BME280;51639;47.828;35.038;2023-04-16T08:36:42;101015.22;;;16.00;100.00
65054;BME280;51639;47.828;35.038;2023-04-16T08:51:48;101003.91;;;16.27;100.00
65054;BME280;51639;47.828;35.038;2023-04-16T09:06:53;100993.41;;;15.67;100.00
65054;BME280;51639;47.828;35.038;2023-04-16T09:21:55;100987.03;;;17.04;100.00
65054;BME280;51639;47.828;35.038;2023-04-16T09:37:16;100968.47;;;17.68;100.00
65054;BME280;51639;47.828;35.038;2023-04-16T09:52:21;100984.28;;;18.30;99.00
65054;BME280;51639;47.828;35.038;2023-04-16T10:07:27;100978.84;;;18.48;79.38
65054;BME280;51639;47.828;35.038;2023-04-16T10:22:29;100971.50;;;19.34;80.44
65054;BME280;51639;47.828;35.038;2023-04-16T10:37:31;100963.44;;;19.58;78.75
65054;BME280;51639;47.828;35.038;2023-04-16T10:52:33;100950.84;;;20.45;69.96
65054;BME280;51639;47.828;35.038;2023-04-16T11:07:36;100944.91;;;20.70;64.46
65054;BME280;51639;47.828;35.038;2023-04-16T11:22:40;100938.72;;;19.91;60.84
65054;BME280;51639;47.828;35.038;2023-04-16T11:37:42;100939.19;;;18.58;65.13
65054;BME280;51639;47.828;35.038;2023-04-16T11:52:46;100922.34;;;18.47;72.16
65054;BME280;51639;47.828;35.038;2023-04-16T12:07:48;100920.59;;;18.00;66.24
65054;BME280;51639;47.828;35.038;2023-04-16T12:22:49;100903.44;;;17.87;71.40
65054;BME280;51639;47.828;35.038;2023-04-16T12:37:53;100904.13;;;17.57;75.98
65054;BME280;51639;47.828;35.038;2023-04-16T12:52:55;100909.56;;;17.48;76.02
65054;BME280;51639;47.828;35.038;2023-04-16T13:07:57;100878.19;;;17.70;74.01
65054;BME280;51639;47.828;35.038;2023-04-16T13:22:59;100874.94;;;17.50;79.61
65054;BME280;51639;47.828;35.038;2023-04-16T13:38:01;100872.78;;;17.23;74.06
65054;BME280;51639;47.828;35.038;2023-04-16T13:53:03;100868.34;;;17.26;76.50
65054;BME280;51639;47.828;35.038;2023-04-16T14:08:05;100870.75;;;17.36;73.13
65054;BME280;51639;47.828;35.038;2023-04-16T14:23:07;100876.00;;;17.09;73.51
65054;BME280;51639;47.828;35.038;2023-04-16T14:38:10;100883.41;;;16.87;75.28
65054;BME280;51639;47.828;35.038;2023-04-16T14:53:12;100878.81;;;16.84;78.79
65054;BME280;51639;47.828;35.038;2023-04-16T15:08:14;100881.47;;;16.75;80.74
65054;BME280;51639;47.828;35.038;2023-04-16T15:23:16;100892.34;;;16.53;76.34
65054;BME280;51639;47.828;35.038;2023-04-16T15:38:19;100874.91;;;16.34;72.63
65054;BME280;51639;47.828;35.038;2023-04-16T15:53:23;100877.63;;;16.09;62.84
65054;BME280;51639;47.828;35.038;2023-04-16T16:08:27;100895.47;;;15.30;65.69
65054;BME280;51639;47.828;35.038;2023-04-16T16:23:30;100889.38;;;14.93;58.52
65054;BME280;51639;47.828;35.038;2023-04-16T16:38:32;100912.03;;;14.61;56.93
65054;BME280;51639;47.828;35.038;2023-04-16T16:53:33;100923.41;;;14.40;54.67
65054;BME280;51639;47.828;35.038;2023-04-16T17:08:35;100937.81;;;14.05;51.27
65054;BME280;51639;47.828;35.038;2023-04-16T17:23:37;100956.94;;;13.65;52.43
65054;BME280;51639;47.828;35.038;2023-04-16T17:38:41;100953.06;;;13.43;56.29
65054;BME280;51639;47.828;35.038;2023-04-16T17:53:45;100959.34;;;13.40;55.21
65054;BME280;51639;47.828;35.038;2023-04-16T18:08:47;100966.78;;;13.12;55.87
65054;BME280;51639;47.828;35.038;2023-04-16T18:23:49;100964.97;;;12.79;56.07
65054;BME280;51639;47.828;35.038;2023-04-16T18:38:51;100958.34;;;12.53;58.68
65054;BME280;51639;47.828;35.038;2023-04-16T18:54:02;100961.66;;;12.37;60.49
65054;BME280;51639;47.828;35.038;2023-04-16T19:09:04;100979.13;;;12.09;63.24
65054;BME280;51639;47.828;35.038;2023-04-16T19:24:06;100962.25;;;11.91;66.46
65054;BME280;51639;47.828;35.038;2023-04-16T19:39:08;100964.34;;;11.76;69.87
65054;BME280;51639;47.828;35.038;2023-04-16T19:54:11;100968.31;;;11.65;74.33
65054;BME280;51639;47.828;35.038;2023-04-16T20:09:13;100977.44;;;11.88;77.07
65054;BME280;51639;47.828;35.038;2023-04-16T20:24:15;100972.06;;;11.40;81.58
65054;BME280;51639;47.828;35.038;2023-04-16T20:39:17;100948.94;;;11.21;85.95
65054;BME280;51639;47.828;35.038;2023-04-16T20:54:22;100947.16;;;11.04;89.98
65054;BME280;51639;47.828;35.038;2023-04-16T21:09:24;100928.34;;;10.76;93.76
65054;BME280;51639;47.828;35.038;2023-04-16T21:24:26;100911.22;;;10.82;95.57
65054;BME280;51639;47.828;35.038;2023-04-16T21:39:28;100917.91;;;10.71;99.25
65054;BME280;51639;47.828;35.038;2023-04-16T21:54:31;100900.75;;;10.22;100.00
65054;BME280;51639;47.828;35.038;2023-04-16T22:09:37;100879.13;;;10.04;100.00
65054;BME280;51639;47.828;35.038;2023-04-16T22:24:38;100876.78;;;10.10;100.00
65054;BME280;51639;47.828;35.038;2023-04-16T22:39:41;100861.31;;;10.00;100.00
65054;BME280;51639;47.828;35.038;2023-04-16T22:54:42;100855.84;;;10.14;100.00
65054;BME280;51639;47.828;35.038;2023-04-16T23:09:44;100849.38;;;9.90;100.00
65054;BME280;51639;47.828;35.038;2023-04-16T23:24:46;100839.81;;;9.64;100.00
65054;BME280;51639;47.828;35.038;2023-04-16T23:39:48;100849.91;;;9.53;100.00
65054;BME280;51639;47.828;35.038;2023-04-16T23:54:50;100851.91;;;9.35;100.00
